AYNZWAJJ

Guest
Details From AYNZ - Nadzab
To WAJJ - Sentani
Flight Number -
Tags generated
Created
Modified
Stats Distance 457 nm / 847 km
Max Altitude 35,000 ft / 10,668 m
Waypoints 5
Social Downloads 18
Likes 0
Share

Download

Looking for another format? Having issues loading an existing format? Contact us
Advertisement - Login to hide

Notes

Basic altitude profile: - Ascent Rate: 2500ft/min - Ascent Speed: 250kts - Cruise Altitude: 35000ft - Cruise Speed: 420kts - Descent Rate: 1500ft/min - Descent Speed: 250kts Options: - Use NATs: yes - Use PACOTS: yes - Use low airways: no - Use high airways: yes

Route

AYNZ MD WK B456 VANKA WAJJ

ID Type Via Altitude (ft/m) Position (lat/lon) Dist (leg/tot) Name
O AYNZ APT - 0 / 0 -6.56983 / 146.72600 - / 0 nm Nadzab
MD VOR - 35,000 / 10,668 -5.21163 / 145.77700 99 / 99 nm MADANG
WK DME - 35,000 / 10,668 -3.58353 / 143.67600 159 / 258 nm WEWAK VOR-DME
VANKA FIX B456 (AWY-HI) 6,400 / 1,951 -2.72167 / 141.00000 168 / 427 nm
O WAJJ APT - 0 / 0 -2.57788 / 140.51800 30 / 457 nm Sentani

Altitude Profile

Advertisement - Login to hide

Weather


0- 5 10 15 20 25 30 35+ Temperature / °C

Clouds and Precipitation
Forecast for 2021-02-27 06:00 UTC. Updated 31 minutes ago

Ground ~20,000 ft ~40,000 ft Winds

AYNZ

Details ICAO AYNZ (LAE)
Name Nadzab
Region Papua New Guinea
Timezone Pacific/Port_Moresby (UTC+10.0)
Stats Elevation 46 ft / 14 m (AMSL)
Location -6.569830° 146.726000°
Runways 1
Magnetic Variation 5.211° E

METAR

AYNZ 270300Z 24004KT 9999 FEW030 SCT070 32/23 Q1004

Decode

TAF

Not found

Departure Runways

ID Width Length Bearing (true/mag) Surface Threshold Overrun Markings Lighting
09 98 ft / 30 m 8,002 ft / 2,439 m 95.00° / 89.79° ASPHALT 0 ft / 0 m 197 ft / 60 m APP EDGE THRESHOLD
27 98 ft / 30 m 8,002 ft / 2,439 m 275.00° / 269.79° ASPHALT 0 ft / 0 m 194 ft / 59 m APP EDGE THRESHOLD

WAJJ

Details ICAO WAJJ (DJJ)
Name Sentani
Region Indonesia
Timezone Asia/Jayapura (UTC+9.0)
Stats Elevation 289 ft / 88 m (AMSL)
Location -2.577880° 140.518000°
Runways 1
Magnetic Variation 3.038° E

METAR

WAJJ 270400Z 28012KT 9999 FEW013 33/23 Q1005 NOSIG

Decode

TAF

Not found

Destination Runways

ID Width Length Bearing (true/mag) Surface Threshold Overrun Markings Lighting
12 148 ft / 45 m 8,210 ft / 2,502 m 126.78° / 123.74° ASPHALT 0 ft / 0 m 0 ft / 0 m PREC-APP CENTERLINE EDGE THRESHOLD MALSF
30 148 ft / 45 m 8,210 ft / 2,502 m 306.78° / 303.74° ASPHALT 0 ft / 0 m 1,640 ft / 500 m PREC-APP CENTERLINE EDGE THRESHOLD MALSF

Approach Navaids

Runway Type Ident Frequency Range Bearing (true/mag) Slope Elevation
30 MM MM - - 306.72° / 303.68 ° - 289 ft / 88 m (AMSL)
30 DME IJPA 110.30 MHz 18 nm / 33 km - - 289 ft / 88 m (AMSL)
30 LOC-ILS IJPA 110.30 MHz 18 nm / 33 km 306.72° / 303.68 ° - 289 ft / 88 m (AMSL)
30 GS IJPA 110.30 MHz 10 nm / 19 km 307.44° / 304.41 ° 3.00° 289 ft / 88 m (AMSL)

Popular Alternatives